createdAt,value
2023-01-12T00:02:19.413Z,8.20
2023-01-12T00:04:47.792Z,8.20
2023-01-12T00:07:18.067Z,8.20
2023-01-12T00:09:46.415Z,8.20
2023-01-12T00:12:14.769Z,8.20
2023-01-12T00:14:43.120Z,8.30
2023-01-12T00:17:16.529Z,8.30
2023-01-12T00:19:46.229Z,8.30
2023-01-12T00:22:17.757Z,8.40
2023-01-12T00:24:48.064Z,8.40
2023-01-12T00:27:18.363Z,8.40
2023-01-12T00:29:46.971Z,8.40
2023-01-12T00:32:17.413Z,8.50
2023-01-12T00:34:47.489Z,8.50
2023-01-12T00:37:16.399Z,8.50
2023-01-12T00:40:01.021Z,8.60
2023-01-12T00:42:47.607Z,8.60
2023-01-12T00:45:25.397Z,8.60
2023-01-12T00:47:54.604Z,8.60
2023-01-12T00:50:24.625Z,8.60
2023-01-12T00:52:53.208Z,8.50
2023-01-12T00:55:21.472Z,8.50
2023-01-12T00:57:49.734Z,8.50
2023-01-12T01:00:19.015Z,8.50
2023-01-12T01:02:47.451Z,8.50
2023-01-12T01:05:18.914Z,8.40
2023-01-12T01:07:48.509Z,8.30
2023-01-12T01:10:17.675Z,8.30
2023-01-12T01:12:45.943Z,8.20
2023-01-12T01:15:14.489Z,8.20
2023-01-12T01:17:42.710Z,8.20
2023-01-12T01:20:12.596Z,8.10
2023-01-12T01:22:40.822Z,8.10
2023-01-12T01:25:11.077Z,8.10
2023-01-12T01:27:39.326Z,8.10
2023-01-12T01:30:08.704Z,8.10
2023-01-12T01:32:36.969Z,8.10
2023-01-12T01:35:05.572Z,8.20
2023-01-12T01:37:36.625Z,8.20
2023-01-12T01:40:05.318Z,8.20
2023-01-12T01:42:35.007Z,8.20
2023-01-12T01:45:06.056Z,8.20
2023-01-12T01:47:40.610Z,8.20
2023-01-12T01:50:17.230Z,8.20
2023-01-12T01:52:49.991Z,8.20
2023-01-12T01:55:23.331Z,8.30
2023-01-12T01:57:58.333Z,8.30
2023-01-12T02:00:27.260Z,8.30
2023-01-12T02:02:56.540Z,8.30
2023-01-12T02:05:27.686Z,8.30
2023-01-12T02:07:56.830Z,8.30
2023-01-12T02:10:25.110Z,8.20
2023-01-12T02:13:12.702Z,8.20
2023-01-12T02:16:09.219Z,8.10
2023-01-12T02:18:47.173Z,8.10
2023-01-12T02:21:52.329Z,8.10
2023-01-12T02:24:48.990Z,8.10
2023-01-12T02:27:50.493Z,8.10
2023-01-12T02:30:51.974Z,8.10
2023-01-12T02:33:31.586Z,8.10
2023-01-12T02:36:07.505Z,8.10
2023-01-12T02:38:41.442Z,8.10
2023-01-12T02:41:42.166Z,8.10
2023-01-12T02:44:22.520Z,8.20
2023-01-12T02:46:53.208Z,8.20
2023-01-12T02:49:28.131Z,8.20
2023-01-12T02:52:00.036Z,8.20
2023-01-12T02:54:29.719Z,8.20
2023-01-12T02:57:03.682Z,8.20
2023-01-12T02:59:36.101Z,8.20
2023-01-12T03:02:08.350Z,8.30
2023-01-12T03:04:38.250Z,8.30
2023-01-12T03:07:31.039Z,8.40
2023-01-12T03:10:04.649Z,8.40
2023-01-12T03:12:36.280Z,8.40
2023-01-12T03:15:08.827Z,8.50
2023-01-12T03:17:41.372Z,8.50
2023-01-12T03:20:16.493Z,8.50
2023-01-12T03:22:46.779Z,8.50
2023-01-12T03:25:18.634Z,8.50
2023-01-12T03:27:52.026Z,8.50
2023-01-12T03:30:23.483Z,8.60
2023-01-12T03:32:52.746Z,8.60
2023-01-12T03:35:28.047Z,8.60
2023-01-12T03:37:59.689Z,8.60
2023-01-12T03:40:33.293Z,8.60
2023-01-12T03:43:09.969Z,8.60
2023-01-12T03:45:42.439Z,8.60
2023-01-12T03:48:17.147Z,8.60
2023-01-12T03:50:49.804Z,8.60
2023-01-12T03:53:21.475Z,8.60
2023-01-12T03:55:51.498Z,8.60
2023-01-12T03:58:20.108Z,8.60
2023-01-12T04:00:48.421Z,8.50
2023-01-12T04:03:17.965Z,8.50
2023-01-12T04:05:48.149Z,8.50
2023-01-12T04:08:18.010Z,8.50
2023-01-12T04:10:46.363Z,8.40
2023-01-12T04:13:13.679Z,8.40
2023-01-12T04:15:43.364Z,8.40
2023-01-12T04:18:12.761Z,8.40
2023-01-12T04:20:41.801Z,8.40
2023-01-12T04:23:10.469Z,8.40
2023-01-12T04:25:38.731Z,8.40
2023-01-12T04:28:07.245Z,8.40
2023-01-12T04:30:36.355Z,8.50
2023-01-12T04:33:09.478Z,8.40
2023-01-12T04:35:38.010Z,8.40
2023-01-12T04:38:10.718Z,8.40
2023-01-12T04:40:39.053Z,8.40
2023-01-12T04:43:08.777Z,8.40
2023-01-12T04:45:39.902Z,8.40
2023-01-12T04:48:10.067Z,8.40
2023-01-12T04:50:39.481Z,8.40
2023-01-12T04:53:13.859Z,8.40
2023-01-12T04:55:44.040Z,8.40
2023-01-12T04:58:12.361Z,8.40
2023-01-12T05:00:40.859Z,8.40
2023-01-12T05:03:12.610Z,8.40
2023-01-12T05:05:40.962Z,8.40
2023-01-12T05:08:28.872Z,8.40
2023-01-12T05:10:59.114Z,8.40
2023-01-12T05:13:28.939Z,8.40
2023-01-12T05:15:57.268Z,8.40
2023-01-12T05:18:25.649Z,8.40
2023-01-12T05:20:54.065Z,8.40
2023-01-12T05:23:23.775Z,8.40
2023-01-12T05:25:52.126Z,8.40
2023-01-12T05:28:20.376Z,8.40
2023-01-12T05:30:48.707Z,8.40
2023-01-12T05:33:17.028Z,8.40
2023-01-12T05:35:45.369Z,8.40
2023-01-12T05:38:13.970Z,8.30
2023-01-12T05:40:43.557Z,8.30
2023-01-12T05:43:31.325Z,8.30
2023-01-12T05:46:03.890Z,8.30
2023-01-12T05:48:32.760Z,8.30
2023-01-12T05:51:02.858Z,8.30
2023-01-12T05:53:31.468Z,8.30
2023-01-12T05:56:06.782Z,8.30
2023-01-12T05:58:35.151Z,8.40
2023-01-12T06:01:07.244Z,8.40
2023-01-12T06:03:35.637Z,8.40
2023-01-12T06:06:04.943Z,8.40
2023-01-12T06:08:33.562Z,8.40
2023-01-12T06:11:04.198Z,8.40
2023-01-12T06:13:49.989Z,8.40
2023-01-12T06:16:18.583Z,8.40
2023-01-12T06:18:46.838Z,8.40
2023-01-12T06:21:15.254Z,8.30
2023-01-12T06:23:43.538Z,8.30
2023-01-12T06:26:13.492Z,8.30
2023-01-12T06:28:42.944Z,8.30
2023-01-12T06:31:13.171Z,8.30
2023-01-12T06:33:41.909Z,8.30
2023-01-12T06:36:10.700Z,8.30
2023-01-12T06:38:39.319Z,8.30
2023-01-12T06:41:29.913Z,8.30
2023-01-12T06:44:00.376Z,8.20
2023-01-12T06:46:29.309Z,8.20
2023-01-12T06:48:58.270Z,8.20
2023-01-12T06:51:27.196Z,8.20
2023-01-12T06:53:55.566Z,8.20
2023-01-12T06:56:24.256Z,8.20
2023-01-12T06:58:52.732Z,8.20
2023-01-12T07:01:22.632Z,8.20
2023-01-12T07:03:50.968Z,8.20
2023-01-12T07:06:19.319Z,8.20
2023-01-12T07:08:47.777Z,8.20
2023-01-12T07:11:17.048Z,8.20
2023-01-12T07:13:45.506Z,8.20
2023-01-12T07:16:13.885Z,8.10
2023-01-12T07:18:43.811Z,8.10
2023-01-12T07:21:13.717Z,8.10
2023-01-12T07:23:43.815Z,8.20
2023-01-12T07:26:13.191Z,8.20
2023-01-12T07:28:42.868Z,8.20
2023-01-12T07:31:11.333Z,8.20
2023-01-12T07:33:40.154Z,8.10
2023-01-12T07:36:10.359Z,8.10
2023-01-12T07:38:39.052Z,8.20
2023-01-12T07:41:27.467Z,8.10
2023-01-12T07:43:55.786Z,8.10
2023-01-12T07:46:24.352Z,8.00
2023-01-12T07:48:52.938Z,8.00
2023-01-12T07:51:22.588Z,8.00
2023-01-12T07:53:50.847Z,8.00
2023-01-12T07:56:19.408Z,7.90
2023-01-12T07:58:49.403Z,7.90
2023-01-12T08:01:18.075Z,7.90
2023-01-12T08:03:46.404Z,7.90
2023-01-12T08:06:18.423Z,7.90
2023-01-12T08:08:48.117Z,7.90
2023-01-12T08:11:16.568Z,7.90
2023-01-12T08:13:44.807Z,7.80
2023-01-12T08:16:17.463Z,7.90
2023-01-12T08:18:50.079Z,7.90
2023-01-12T08:21:24.242Z,7.90
2023-01-12T08:23:58.881Z,7.90
2023-01-12T08:26:32.065Z,7.90
2023-01-12T08:29:04.451Z,7.90
2023-01-12T08:31:34.187Z,7.90
2023-01-12T08:34:02.642Z,7.90
2023-01-12T08:36:32.735Z,7.90
2023-01-12T08:39:04.445Z,7.90
2023-01-12T08:41:37.558Z,7.90
2023-01-12T08:44:09.897Z,7.90
2023-01-12T08:46:39.864Z,8.00
2023-01-12T08:49:11.453Z,8.00
2023-01-12T08:51:40.643Z,8.00
2023-01-12T08:54:14.608Z,8.00
2023-01-12T08:56:43.048Z,8.10
2023-01-12T08:59:12.366Z,8.10
2023-01-12T09:01:41.062Z,8.20
2023-01-12T09:04:13.066Z,8.20
2023-01-12T09:06:43.490Z,8.20
2023-01-12T09:09:14.399Z,8.20
2023-01-12T09:11:44.652Z,8.30
2023-01-12T09:14:14.912Z,8.30
2023-01-12T09:16:43.963Z,8.40
2023-01-12T09:19:12.722Z,8.40
2023-01-12T09:21:44.204Z,8.50
2023-01-12T09:24:15.547Z,8.50
2023-01-12T09:26:45.482Z,8.50
2023-01-12T09:29:15.504Z,8.60
2023-01-12T09:31:45.651Z,8.70
2023-01-12T09:34:14.615Z,8.70
2023-01-12T09:36:43.263Z,8.70
2023-01-12T09:39:26.973Z,8.80
2023-01-12T09:42:13.746Z,8.80
2023-01-12T09:45:01.504Z,8.80
2023-01-12T09:47:35.827Z,8.80
2023-01-12T09:50:09.529Z,8.80
2023-01-12T09:52:42.959Z,8.90
2023-01-12T09:55:17.655Z,8.90
2023-01-12T09:58:24.744Z,9.00
2023-01-12T10:00:54.098Z,9.00
2023-01-12T10:03:29.420Z,9.00
2023-01-12T10:06:00.649Z,9.10
2023-01-12T10:08:34.254Z,9.10
2023-01-12T10:11:18.251Z,9.10
2023-01-12T10:14:03.107Z,9.10
2023-01-12T10:16:40.106Z,9.20
2023-01-12T10:19:19.737Z,9.30
2023-01-12T10:21:53.728Z,9.30
2023-01-12T10:24:23.766Z,9.30
2023-01-12T10:27:01.260Z,9.30
2023-01-12T10:29:31.492Z,9.40
2023-01-12T10:31:59.892Z,9.40
2023-01-12T10:34:30.275Z,9.40
2023-01-12T10:37:10.471Z,9.40
2023-01-12T10:39:39.753Z,9.50
2023-01-12T10:42:37.810Z,9.50
2023-01-12T10:45:20.682Z,9.60
2023-01-12T10:47:50.769Z,9.60
2023-01-12T10:50:24.909Z,9.60
2023-01-12T10:52:57.677Z,9.60
2023-01-12T10:55:31.568Z,9.60
2023-01-12T10:58:01.701Z,9.70
2023-01-12T11:00:31.017Z,9.70
2023-01-12T11:02:59.579Z,9.70
2023-01-12T11:05:34.268Z,9.70
2023-01-12T11:08:03.166Z,9.70
2023-01-12T11:10:35.831Z,9.70
2023-01-12T11:13:08.959Z,9.70
2023-01-12T11:15:40.183Z,9.70
2023-01-12T11:18:29.143Z,9.70
2023-01-12T11:21:03.050Z,9.70
2023-01-12T11:23:38.913Z,9.70
2023-01-12T11:26:18.516Z,9.70
2023-01-12T11:28:52.123Z,9.70
2023-01-12T11:31:24.027Z,9.70
2023-01-12T11:33:57.276Z,9.70
2023-01-12T11:36:29.088Z,9.70
2023-01-12T11:39:03.331Z,9.70
2023-01-12T11:41:39.593Z,9.80
2023-01-12T11:44:18.256Z,9.80
2023-01-12T11:46:49.898Z,9.80
2023-01-12T11:49:29.285Z,9.80
2023-01-12T11:51:59.652Z,9.80
2023-01-12T11:54:29.852Z,9.80
2023-01-12T11:57:28.945Z,9.80
2023-01-12T12:00:11.003Z,9.80
2023-01-12T12:02:42.573Z,9.80
2023-01-12T12:05:23.016Z,9.80
2023-01-12T12:08:03.362Z,9.90
2023-01-12T12:10:40.408Z,9.90
2023-01-12T12:13:24.043Z,9.90
2023-01-12T12:16:07.458Z,9.90
2023-01-12T12:18:52.038Z,9.90
2023-01-12T12:21:37.389Z,10.00
2023-01-12T12:24:15.337Z,10.00
2023-01-12T12:26:48.229Z,10.00
2023-01-12T12:29:29.762Z,10.00
2023-01-12T12:32:08.608Z,10.00
2023-01-12T12:34:51.790Z,10.10
2023-01-12T12:37:27.409Z,10.00
2023-01-12T12:40:06.425Z,10.10
2023-01-12T12:43:13.429Z,10.10
2023-01-12T12:45:48.244Z,10.10
2023-01-12T12:48:24.985Z,10.10
2023-01-12T12:51:01.841Z,10.10
2023-01-12T12:53:33.331Z,10.10
2023-01-12T12:56:04.550Z,10.10
2023-01-12T12:58:51.315Z,10.10
2023-01-12T13:01:55.768Z,10.10
2023-01-12T13:05:04.826Z,10.10
2023-01-12T13:07:37.338Z,10.10
2023-01-12T13:10:19.874Z,10.10
2023-01-12T13:13:15.222Z,10.10
2023-01-12T13:15:43.994Z,10.10
2023-01-12T13:18:42.404Z,10.10
2023-01-12T13:21:33.218Z,10.10
2023-01-12T13:24:29.719Z,10.10
2023-01-12T13:27:00.773Z,10.10
2023-01-12T13:29:44.369Z,10.10
2023-01-12T13:32:45.200Z,10.10
2023-01-12T13:35:46.345Z,10.10
2023-01-12T13:38:22.942Z,10.10
2023-01-12T13:40:55.668Z,10.10
2023-01-12T13:43:27.567Z,10.10
2023-01-12T13:46:01.203Z,10.10
2023-01-12T13:48:31.631Z,10.10
2023-01-12T13:51:02.720Z,10.20
2023-01-12T13:53:33.887Z,10.20
2023-01-12T13:56:03.884Z,10.10
2023-01-12T13:58:40.488Z,10.10
2023-01-12T14:01:19.130Z,10.20
2023-01-12T14:04:06.701Z,10.20
2023-01-12T14:06:45.169Z,10.10
2023-01-12T14:09:23.496Z,10.10
2023-01-12T14:12:07.866Z,10.20
2023-01-12T14:15:16.252Z,10.10
2023-01-12T14:17:53.257Z,10.10
2023-01-12T14:20:24.435Z,10.10
2023-01-12T14:23:12.745Z,10.10
2023-01-12T14:25:43.715Z,10.10
2023-01-12T14:28:20.374Z,10.20
2023-01-12T14:30:51.705Z,10.10
2023-01-12T14:33:22.008Z,10.10
2023-01-12T14:35:54.841Z,10.10
2023-01-12T14:38:26.564Z,10.10
2023-01-12T14:41:00.377Z,10.10
2023-01-12T14:43:50.366Z,10.10
2023-01-12T14:46:28.122Z,10.10
2023-01-12T14:49:02.606Z,10.10
2023-01-12T14:51:35.219Z,10.10
2023-01-12T14:54:19.645Z,10.10
2023-01-12T14:56:59.567Z,10.10
2023-01-12T14:59:30.804Z,10.10
2023-01-12T15:02:21.165Z,10.10
2023-01-12T15:04:55.998Z,10.10
2023-01-12T15:07:25.538Z,10.10
2023-01-12T15:09:57.267Z,10.10
2023-01-12T15:12:42.661Z,10.10
2023-01-12T15:15:19.806Z,10.10
2023-01-12T15:18:06.551Z,10.10
2023-01-12T15:20:58.205Z,10.10
2023-01-12T15:23:47.739Z,10.10
2023-01-12T15:26:16.262Z,10.10
2023-01-12T15:28:47.269Z,10.10
2023-01-12T15:31:20.355Z,10.10
2023-01-12T15:33:48.847Z,10.10
2023-01-12T15:36:17.396Z,10.10
2023-01-12T15:38:45.792Z,10.10
2023-01-12T15:41:19.631Z,10.10
2023-01-12T15:43:49.955Z,10.10
2023-01-12T15:46:20.546Z,10.10
2023-01-12T15:48:48.983Z,10.10
2023-01-12T15:51:17.409Z,10.10
2023-01-12T15:53:45.913Z,10.10
2023-01-12T15:56:16.352Z,10.10
2023-01-12T15:58:44.806Z,10.10
2023-01-12T16:01:17.984Z,10.10
2023-01-12T16:04:15.020Z,10.10
2023-01-12T16:06:37.394Z,10.10
2023-01-12T16:09:05.997Z,10.10
2023-01-12T16:11:34.324Z,10.10
2023-01-12T16:14:02.870Z,10.10
2023-01-12T16:16:32.902Z,10.10
2023-01-12T16:19:06.173Z,10.10
2023-01-12T16:21:35.363Z,10.10
2023-01-12T16:24:04.073Z,10.10
2023-01-12T16:26:32.799Z,10.10
2023-01-12T16:29:01.453Z,10.10
2023-01-12T16:31:31.529Z,10.10
2023-01-12T16:34:01.448Z,10.10
2023-01-12T16:36:29.878Z,10.10
2023-01-12T16:38:59.474Z,10.10
2023-01-12T16:41:27.806Z,10.10
2023-01-12T16:43:59.879Z,10.10
2023-01-12T16:46:28.247Z,10.10
2023-01-12T16:48:56.798Z,10.10
2023-01-12T16:51:26.890Z,10.10
2023-01-12T16:53:57.497Z,10.10
2023-01-12T16:56:26.458Z,10.10
2023-01-12T16:58:54.938Z,10.10
2023-01-12T17:01:24.980Z,10.10
2023-01-12T17:03:57.876Z,10.10
2023-01-12T17:06:29.956Z,10.10
2023-01-12T17:09:01.347Z,10.00
2023-01-12T17:11:30.805Z,10.10
2023-01-12T17:13:59.914Z,10.00
2023-01-12T17:16:29.765Z,10.00
2023-01-12T17:18:58.506Z,10.00
2023-01-12T17:21:28.516Z,10.00
2023-01-12T17:23:57.755Z,10.00
2023-01-12T17:26:26.201Z,10.00
2023-01-12T17:28:56.810Z,10.00
2023-01-12T17:31:25.707Z,10.10
2023-01-12T17:33:54.324Z,10.10
2023-01-12T17:36:22.666Z,10.10
2023-01-12T17:38:52.536Z,10.10
2023-01-12T17:41:38.437Z,10.00
2023-01-12T17:44:07.272Z,10.00
2023-01-12T17:46:36.371Z,10.00
2023-01-12T17:49:07.354Z,10.00
2023-01-12T17:51:37.198Z,10.00
2023-01-12T17:54:08.979Z,10.00
2023-01-12T17:56:37.420Z,10.10
2023-01-12T17:59:07.278Z,10.10
2023-01-12T18:01:37.719Z,10.10
2023-01-12T18:04:06.620Z,10.10
2023-01-12T18:06:35.147Z,10.10
2023-01-12T18:09:03.816Z,10.10
2023-01-12T18:11:34.468Z,10.10
2023-01-12T18:14:02.947Z,10.00
2023-01-12T18:16:31.502Z,10.00
2023-01-12T18:19:00.238Z,10.10
2023-01-12T18:21:29.147Z,10.10
2023-01-12T18:23:58.271Z,10.00
2023-01-12T18:26:28.912Z,10.00
2023-01-12T18:28:59.700Z,10.10
2023-01-12T18:31:31.465Z,10.10
2023-01-12T18:34:03.626Z,10.10
2023-01-12T18:36:32.971Z,10.10
2023-01-12T18:39:01.416Z,10.10
2023-01-12T18:41:47.811Z,10.10
2023-01-12T18:44:17.666Z,10.10
2023-01-12T18:47:03.574Z,10.00
2023-01-12T18:49:34.192Z,10.10
2023-01-12T18:52:20.476Z,10.10
2023-01-12T18:54:48.977Z,10.10
2023-01-12T18:57:19.987Z,10.10
2023-01-12T18:59:52.360Z,10.10
2023-01-12T19:02:21.899Z,10.00
2023-01-12T19:05:07.795Z,10.00
2023-01-12T19:07:51.074Z,10.00
2023-01-12T19:10:19.857Z,10.00
2023-01-12T19:12:49.299Z,10.00
2023-01-12T19:15:35.923Z,10.00
2023-01-12T19:18:04.237Z,10.00
2023-01-12T19:20:34.658Z,10.00
2023-01-12T19:23:20.616Z,10.00
2023-01-12T19:26:08.884Z,10.00
2023-01-12T19:28:38.243Z,10.00
2023-01-12T19:31:10.984Z,9.90
2023-01-12T19:33:39.756Z,10.00
2023-01-12T19:36:10.314Z,10.00
2023-01-12T19:38:41.867Z,10.00
2023-01-12T19:41:13.159Z,10.00
2023-01-12T19:43:44.937Z,10.00
2023-01-12T19:46:14.692Z,10.00
2023-01-12T19:48:43.174Z,10.00
2023-01-12T19:51:11.749Z,10.00
2023-01-12T19:53:40.935Z,10.00
2023-01-12T19:56:11.485Z,10.00
2023-01-12T19:58:41.458Z,10.00
2023-01-12T20:01:10.139Z,10.00
2023-01-12T20:03:41.849Z,10.10
2023-01-12T20:06:10.734Z,10.00
2023-01-12T20:08:39.175Z,10.10
2023-01-12T20:11:08.454Z,10.10
2023-01-12T20:13:37.300Z,10.10
2023-01-12T20:16:09.398Z,10.10
2023-01-12T20:18:43.348Z,10.10
2023-01-12T20:21:13.233Z,10.10
2023-01-12T20:23:41.761Z,10.10
2023-01-12T20:26:12.608Z,10.10
2023-01-12T20:28:41.470Z,10.10
2023-01-12T20:31:11.195Z,10.10
2023-01-12T20:33:41.074Z,10.10
2023-01-12T20:36:11.778Z,10.10
2023-01-12T20:38:40.797Z,10.10
2023-01-12T20:41:10.185Z,10.00
2023-01-12T20:43:38.855Z,10.00
2023-01-12T20:46:09.565Z,10.00
2023-01-12T20:48:37.950Z,10.00
2023-01-12T20:51:10.344Z,10.10
2023-01-12T20:53:38.804Z,10.00
2023-01-12T20:56:08.004Z,10.00
2023-01-12T20:58:36.890Z,10.00
2023-01-12T21:01:10.481Z,10.00
2023-01-12T21:03:39.035Z,10.00
2023-01-12T21:06:11.304Z,10.00
2023-01-12T21:08:40.238Z,10.00
2023-01-12T21:11:08.888Z,10.00
2023-01-12T21:13:37.660Z,10.10
2023-01-12T21:16:08.613Z,10.10
2023-01-12T21:18:37.001Z,10.10
2023-01-12T21:21:06.328Z,10.10
2023-01-12T21:23:36.052Z,10.10
2023-01-12T21:26:07.673Z,10.10
2023-01-12T21:28:37.862Z,10.10
2023-01-12T21:31:08.445Z,10.10
2023-01-12T21:33:37.309Z,10.10
2023-01-12T21:36:06.523Z,10.10
2023-01-12T21:38:36.143Z,10.10
2023-01-12T21:41:06.237Z,10.10
2023-01-12T21:43:34.380Z,10.10
2023-01-12T21:46:08.496Z,10.20
2023-01-12T21:48:37.457Z,10.20
2023-01-12T21:51:07.697Z,10.20
2023-01-12T21:53:37.400Z,10.20
2023-01-12T21:56:07.424Z,10.20
2023-01-12T21:58:37.718Z,10.20
2023-01-12T22:01:10.992Z,10.20
2023-01-12T22:03:39.883Z,10.20
2023-01-12T22:06:10.402Z,10.20
2023-01-12T22:08:41.697Z,10.20
2023-01-12T22:11:11.760Z,10.20
2023-01-12T22:13:40.199Z,10.20
2023-01-12T22:16:10.193Z,10.20
2023-01-12T22:18:39.097Z,10.10
2023-01-12T22:21:09.199Z,10.10
2023-01-12T22:23:39.708Z,10.10
2023-01-12T22:26:10.125Z,10.10
2023-01-12T22:28:41.035Z,10.10
2023-01-12T22:31:11.340Z,10.10
2023-01-12T22:33:40.008Z,10.10
2023-01-12T22:36:09.401Z,10.10
2023-01-12T22:38:39.029Z,10.10
2023-01-12T22:41:07.781Z,10.10
2023-01-12T22:43:40.795Z,10.10
2023-01-12T22:46:16.374Z,10.10
2023-01-12T22:48:45.041Z,10.10
2023-01-12T22:51:13.365Z,10.10
2023-01-12T22:53:43.737Z,10.10
2023-01-12T22:56:12.758Z,10.10
2023-01-12T22:58:41.575Z,10.10
2023-01-12T23:01:10.888Z,10.10
2023-01-12T23:03:39.433Z,10.10
2023-01-12T23:06:11.838Z,10.10
2023-01-12T23:08:40.115Z,10.10
2023-01-12T23:11:12.938Z,10.20
2023-01-12T23:13:41.624Z,10.20
2023-01-12T23:16:12.315Z,10.20
2023-01-12T23:18:41.924Z,10.30
2023-01-12T23:21:14.375Z,10.20
2023-01-12T23:23:44.683Z,10.20
2023-01-12T23:26:16.366Z,10.30
2023-01-12T23:28:47.513Z,10.30
2023-01-12T23:31:17.654Z,10.30
2023-01-12T23:33:46.377Z,10.30
2023-01-12T23:36:18.493Z,10.30
2023-01-12T23:38:47.295Z,10.20
2023-01-12T23:41:19.267Z,10.20
2023-01-12T23:43:48.170Z,10.20
2023-01-12T23:46:17.215Z,10.10
2023-01-12T23:48:45.685Z,10.10
2023-01-12T23:51:14.107Z,10.10
2023-01-12T23:53:42.507Z,10.10
2023-01-12T23:56:13.712Z,10.10
2023-01-12T23:58:43.874Z,10.10
